createdAt,value
2019-04-28T00:00:21.479Z,101078.27
2019-04-28T00:02:50.776Z,101083.06
2019-04-28T00:05:18.912Z,101083.78
2019-04-28T00:07:46.681Z,101082.69
2019-04-28T00:10:14.814Z,101075.59
2019-04-28T00:12:42.673Z,101082.06
2019-04-28T00:15:10.889Z,101079.88
2019-04-28T00:17:38.779Z,101085.98
2019-04-28T00:20:10.683Z,101078.39
2019-04-28T00:22:46.031Z,101086.58
2019-04-28T00:25:21.576Z,101085.63
2019-04-28T00:27:49.535Z,101093.75
2019-04-28T00:30:17.289Z,101096.00
2019-04-28T00:32:45.089Z,101097.86
2019-04-28T00:35:12.834Z,101092.13
2019-04-28T00:37:41.776Z,101095.11
2019-04-28T00:40:11.142Z,101093.83
2019-04-28T00:42:39.025Z,101093.02
2019-04-28T00:45:07.419Z,101097.45
2019-04-28T00:47:35.161Z,101101.56
2019-04-28T00:50:04.408Z,101094.55
2019-04-28T00:52:32.274Z,101097.70
2019-04-28T00:55:01.145Z,101099.20
2019-04-28T00:57:30.900Z,101107.58
2019-04-28T00:59:59.046Z,101102.82
2019-04-28T01:02:41.483Z,101112.20
2019-04-28T01:05:11.154Z,101107.62
2019-04-28T01:07:38.792Z,101107.09
2019-04-28T01:10:06.540Z,101104.94
2019-04-28T01:12:34.483Z,101099.72
2019-04-28T01:15:04.823Z,101100.98
2019-04-28T01:17:49.955Z,101105.81
2019-04-28T01:20:19.671Z,101098.84
2019-04-28T01:22:49.575Z,101103.75
2019-04-28T01:25:17.265Z,101106.73
2019-04-28T01:27:51.307Z,101108.94
2019-04-28T01:30:53.787Z,101107.23
2019-04-28T01:33:29.482Z,101106.67
2019-04-28T01:35:57.400Z,101111.09
2019-04-28T01:38:25.143Z,101117.73
2019-04-28T01:40:52.878Z,101119.39
2019-04-28T01:43:20.660Z,101119.31
2019-04-28T01:45:50.216Z,101122.47
2019-04-28T01:48:19.875Z,101122.44
2019-04-28T01:50:47.723Z,101125.42
2019-04-28T01:53:15.574Z,101127.20
2019-04-28T01:55:43.396Z,101129.04
2019-04-28T01:58:11.224Z,101132.08
2019-04-28T02:00:40.536Z,101131.50
2019-04-28T02:03:10.259Z,101132.50
2019-04-28T02:05:37.853Z,101130.02
2019-04-28T02:08:05.609Z,101136.71
2019-04-28T02:10:33.392Z,101137.34
2019-04-28T02:13:01.224Z,101142.64
2019-04-28T02:15:30.156Z,101140.55
2019-04-28T02:18:00.121Z,101141.96
2019-04-28T02:20:30.001Z,101143.53
2019-04-28T02:23:16.664Z,101145.42
2019-04-28T02:25:44.515Z,101136.91
2019-04-28T02:28:12.371Z,101141.64
2019-04-28T02:30:48.870Z,101140.35
2019-04-28T02:33:11.136Z,101141.01
2019-04-28T02:35:41.745Z,101145.41
2019-04-28T02:38:11.373Z,101153.97
2019-04-28T02:40:40.621Z,101154.44
2019-04-28T02:43:07.731Z,101145.77
2019-04-28T02:45:35.583Z,101149.77
2019-04-28T02:48:05.017Z,101154.81
2019-04-28T02:50:54.843Z,101152.30
2019-04-28T02:53:26.084Z,101154.14
2019-04-28T02:55:53.957Z,101161.65
2019-04-28T02:58:22.561Z,101162.77
2019-04-28T03:01:02.575Z,101156.52
2019-04-28T03:03:21.106Z,101162.86
2019-04-28T03:05:51.208Z,101165.03
2019-04-28T03:08:21.205Z,101171.53
2019-04-28T03:10:50.743Z,101175.31
2019-04-28T03:13:20.641Z,101174.22
2019-04-28T03:15:47.511Z,101181.63
2019-04-28T03:18:15.277Z,101177.20
2019-04-28T03:20:43.026Z,101171.28
2019-04-28T03:23:12.385Z,101175.78
2019-04-28T03:25:50.491Z,101179.33
2019-04-28T03:28:41.376Z,101174.22
2019-04-28T03:31:51.023Z,101186.69
2019-04-28T03:33:56.320Z,101182.57
2019-04-28T03:36:24.281Z,101179.69
2019-04-28T03:38:53.204Z,101182.90
2019-04-28T03:41:21.291Z,101183.39
2019-04-28T03:43:51.274Z,101186.56
2019-04-28T03:46:22.404Z,101179.13
2019-04-28T03:48:50.909Z,101184.98
2019-04-28T03:51:21.192Z,101185.70
2019-04-28T03:53:50.692Z,101191.30
2019-04-28T03:56:20.718Z,101192.05
2019-04-28T03:58:50.276Z,101198.64
2019-04-28T04:01:20.448Z,101192.38
2019-04-28T04:03:46.944Z,101192.13
2019-04-28T04:06:14.772Z,101186.94
2019-04-28T04:08:42.516Z,101189.95
2019-04-28T04:11:31.219Z,101184.59
2019-04-28T04:14:11.620Z,101192.38
2019-04-28T04:17:00.152Z,101196.16
2019-04-28T04:19:32.183Z,101199.74
2019-04-28T04:22:00.402Z,101195.09
2019-04-28T04:24:30.640Z,101195.34
2019-04-28T04:26:57.783Z,101194.82
2019-04-28T04:29:25.530Z,101197.81
2019-04-28T04:32:09.419Z,101200.67
2019-04-28T04:34:22.756Z,101201.38
2019-04-28T04:36:50.966Z,101206.47
2019-04-28T04:39:20.610Z,101210.25
2019-04-28T04:41:50.417Z,101203.72
2019-04-28T04:44:17.815Z,101206.77
2019-04-28T04:46:45.595Z,101210.72
2019-04-28T04:49:13.536Z,101214.95
2019-04-28T04:51:43.877Z,101217.67
2019-04-28T04:54:11.003Z,101217.45
2019-04-28T04:56:40.168Z,101214.62
2019-04-28T04:59:10.100Z,101217.34
2019-04-28T05:01:50.091Z,101222.55
2019-04-28T05:04:22.608Z,101228.61
2019-04-28T05:06:50.384Z,101229.23
2019-04-28T05:09:19.923Z,101236.06
2019-04-28T05:11:49.792Z,101246.67
2019-04-28T05:14:17.400Z,101246.42
2019-04-28T05:16:45.144Z,101251.00
2019-04-28T05:19:12.924Z,101249.25
2019-04-28T05:21:40.739Z,101253.40
2019-04-28T05:24:16.343Z,101255.34
2019-04-28T05:26:47.536Z,101262.50
2019-04-28T05:29:14.568Z,101258.37
2019-04-28T05:31:42.348Z,101259.43
2019-04-28T05:34:11.622Z,101263.17
2019-04-28T05:36:44.402Z,101271.31
2019-04-28T05:39:10.466Z,101267.27
2019-04-28T05:41:39.962Z,101259.57
2019-04-28T05:44:09.934Z,101269.15
2019-04-28T05:46:37.732Z,101275.39
2019-04-28T05:49:19.457Z,101278.34
2019-04-28T05:51:48.137Z,101274.30
2019-04-28T05:54:33.354Z,101277.64
2019-04-28T05:57:20.544Z,101279.29
2019-04-28T06:00:03.341Z,101279.22
2019-04-28T06:02:33.362Z,101281.98
2019-04-28T06:05:01.149Z,101289.79
2019-04-28T06:07:37.564Z,101299.77
2019-04-28T06:10:05.372Z,101296.07
2019-04-28T06:12:33.347Z,101295.88
2019-04-28T06:15:24.819Z,101298.59
2019-04-28T06:17:52.794Z,101300.86
2019-04-28T06:20:20.788Z,101309.44
2019-04-28T06:22:48.569Z,101312.24
2019-04-28T06:25:16.328Z,101315.20
2019-04-28T06:28:23.780Z,101321.92
2019-04-28T06:30:48.628Z,101321.28
2019-04-28T06:33:16.452Z,101323.66
2019-04-28T06:35:44.577Z,101329.80
2019-04-28T06:38:13.466Z,101326.56
2019-04-28T06:40:41.222Z,101333.81
2019-04-28T06:43:09.029Z,101338.76
2019-04-28T06:45:36.816Z,101336.80
2019-04-28T06:48:04.584Z,101337.05
2019-04-28T06:50:32.315Z,101337.72
2019-04-28T06:53:02.783Z,101341.38
2019-04-28T06:55:29.593Z,101341.25
2019-04-28T06:57:57.509Z,101338.63
2019-04-28T07:00:25.262Z,101348.86
2019-04-28T07:02:53.039Z,101345.22
2019-04-28T07:05:20.804Z,101344.67
2019-04-28T07:07:48.557Z,101340.88
2019-04-28T07:10:16.403Z,101345.97
2019-04-28T07:12:44.204Z,101354.53
2019-04-28T07:15:11.956Z,101359.61
2019-04-28T07:17:39.714Z,101364.96
2019-04-28T07:20:20.550Z,101378.26
2019-04-28T07:22:48.296Z,101377.74
2019-04-28T07:25:16.230Z,101382.38
2019-04-28T07:27:44.013Z,101387.36
2019-04-28T07:30:11.765Z,101394.42
2019-04-28T07:32:39.541Z,101391.81
2019-04-28T07:35:07.296Z,101395.02
2019-04-28T07:37:35.090Z,101400.17
2019-04-28T07:40:03.234Z,101395.33
2019-04-28T07:42:31.134Z,101398.25
2019-04-28T07:44:59.173Z,101397.48
2019-04-28T07:47:27.083Z,101390.22
2019-04-28T07:49:55.034Z,101390.30
2019-04-28T07:52:38.128Z,101397.66
2019-04-28T07:55:07.072Z,101400.87
2019-04-28T07:57:37.591Z,101401.08
2019-04-28T08:00:06.032Z,101398.45
2019-04-28T08:02:35.663Z,101410.52
2019-04-28T08:05:03.436Z,101416.23
2019-04-28T08:07:31.225Z,101416.22
2019-04-28T08:09:59.126Z,101423.77
2019-04-28T08:12:26.894Z,101433.58
2019-04-28T08:14:54.799Z,101440.52
2019-04-28T08:17:22.845Z,101446.58
2019-04-28T08:19:50.744Z,101451.80
2019-04-28T08:22:18.846Z,101460.86
2019-04-28T08:24:46.651Z,101461.53
2019-04-28T08:27:22.668Z,101464.53
2019-04-28T08:29:58.053Z,101473.03
2019-04-28T08:32:38.264Z,101473.84
2019-04-28T08:35:06.173Z,101474.45
2019-04-28T08:37:34.415Z,101475.05
2019-04-28T08:40:03.081Z,101473.19
2019-04-28T08:42:30.910Z,101476.78
2019-04-28T08:44:58.677Z,101480.20
2019-04-28T08:47:26.543Z,101484.33
2019-04-28T08:49:54.485Z,101493.44
2019-04-28T08:52:22.376Z,101497.13
2019-04-28T08:54:56.079Z,101505.00
2019-04-28T08:57:21.934Z,101497.87
2019-04-28T08:59:50.399Z,101483.00
2019-04-28T09:02:18.201Z,101509.94
2019-04-28T09:04:46.191Z,101511.98
2019-04-28T09:07:14.323Z,101510.08
2019-04-28T09:09:42.353Z,101511.83
2019-04-28T09:12:10.273Z,101508.97
2019-04-28T09:14:38.133Z,101514.66
2019-04-28T09:17:05.879Z,101516.30
2019-04-28T09:19:33.702Z,101509.77
2019-04-28T09:22:01.584Z,101515.66
2019-04-28T09:24:29.369Z,101510.77
2019-04-28T09:26:57.108Z,101507.70
2019-04-28T09:29:24.977Z,101439.55
2019-04-28T09:31:52.717Z,101511.58
2019-04-28T09:34:28.047Z,101522.98
2019-04-28T09:36:51.339Z,101527.30
2019-04-28T09:39:23.416Z,101539.49
2019-04-28T09:42:08.668Z,101538.31
2019-04-28T09:44:36.527Z,101542.08
2019-04-28T09:47:04.292Z,101555.53
2019-04-28T09:49:32.167Z,101557.64
2019-04-28T09:52:00.246Z,101556.09
2019-04-28T09:54:27.991Z,101554.27
2019-04-28T09:56:57.100Z,101551.57
2019-04-28T09:59:25.706Z,101550.98
2019-04-28T10:02:12.195Z,101558.77
2019-04-28T10:04:41.823Z,101557.72
2019-04-28T10:07:09.849Z,101563.41
2019-04-28T10:09:37.609Z,101475.61
2019-04-28T10:12:05.661Z,101569.70
2019-04-28T10:14:33.485Z,101567.27
2019-04-28T10:17:01.291Z,101574.28
2019-04-28T10:19:33.198Z,101572.39
2019-04-28T10:22:01.043Z,101569.37
2019-04-28T10:24:28.870Z,101566.86
2019-04-28T10:27:01.843Z,101563.70
2019-04-28T10:29:34.166Z,101564.14
2019-04-28T10:32:02.316Z,101562.87
2019-04-28T10:34:30.302Z,101571.80
2019-04-28T10:36:59.166Z,101577.67
2019-04-28T10:39:49.636Z,101582.42
2019-04-28T10:42:18.415Z,101590.50
2019-04-28T10:44:56.263Z,101547.44
2019-04-28T10:47:30.250Z,101592.70
2019-04-28T10:50:03.414Z,101592.98
2019-04-28T10:52:36.154Z,101598.77
2019-04-28T10:55:12.804Z,101602.50
2019-04-28T10:57:45.982Z,101598.47
2019-04-28T11:00:15.449Z,101609.08
2019-04-28T11:02:44.296Z,101603.25
2019-04-28T11:05:19.331Z,101603.98
2019-04-28T11:07:53.197Z,101570.02
2019-04-28T11:10:21.877Z,101611.12
2019-04-28T11:12:49.923Z,101614.42
2019-04-28T11:15:22.681Z,101611.67
2019-04-28T11:17:50.530Z,101613.29
2019-04-28T11:20:18.374Z,101615.34
2019-04-28T11:22:46.185Z,101621.99
2019-04-28T11:25:14.188Z,101608.75
2019-04-28T11:27:42.116Z,101592.92
2019-04-28T11:30:10.026Z,101612.38
2019-04-28T11:32:39.889Z,101620.17
2019-04-28T11:35:29.234Z,101622.22
2019-04-28T11:37:57.915Z,101627.45
2019-04-28T11:40:26.614Z,101621.98
2019-04-28T11:42:54.662Z,101616.31
2019-04-28T11:45:22.829Z,101618.01
2019-04-28T11:47:50.746Z,101573.28
2019-04-28T11:50:18.757Z,101633.14
2019-04-28T11:52:46.786Z,101629.69
2019-04-28T11:55:14.701Z,101626.70
2019-04-28T11:57:43.114Z,101632.41
2019-04-28T12:00:25.411Z,101530.38
2019-04-28T12:02:54.553Z,101632.88
2019-04-28T12:05:34.437Z,101533.16
2019-04-28T12:07:56.752Z,101628.28
2019-04-28T12:10:28.216Z,101625.06
2019-04-28T12:13:21.423Z,101622.83
2019-04-28T12:16:13.542Z,101633.52
2019-04-28T12:19:05.755Z,101638.25
2019-04-28T12:21:33.582Z,101631.36
2019-04-28T12:24:01.412Z,101633.29
2019-04-28T12:26:29.288Z,101640.93
2019-04-28T12:28:57.191Z,101637.05
2019-04-28T12:31:25.078Z,101599.86
2019-04-28T12:33:52.844Z,101644.34
2019-04-28T12:36:20.705Z,101646.87
2019-04-28T12:38:50.272Z,101648.05
2019-04-28T12:41:19.550Z,101643.63
2019-04-28T12:43:47.498Z,101651.30
2019-04-28T12:46:15.507Z,101648.17
2019-04-28T12:48:43.606Z,101652.99
2019-04-28T12:51:11.825Z,101661.22
2019-04-28T12:53:39.849Z,101651.13
2019-04-28T12:56:07.968Z,101663.08
2019-04-28T12:58:35.772Z,101666.55
2019-04-28T13:01:25.851Z,101665.84
2019-04-28T13:04:11.765Z,101603.88
2019-04-28T13:06:39.845Z,101669.62
2019-04-28T13:09:07.784Z,101670.49
2019-04-28T13:11:35.641Z,101667.91
2019-04-28T13:14:03.558Z,101675.38
2019-04-28T13:16:31.318Z,101681.03
2019-04-28T13:18:59.142Z,101682.13
2019-04-28T13:21:26.959Z,101679.02
2019-04-28T13:23:54.818Z,101686.12
2019-04-28T13:26:22.572Z,101684.80
2019-04-28T13:28:50.345Z,101688.25
2019-04-28T13:31:18.104Z,101696.81
2019-04-28T13:33:56.013Z,101688.56
2019-04-28T13:36:15.596Z,101690.80
2019-04-28T13:38:43.892Z,101632.63
2019-04-28T13:41:18.442Z,101703.97
2019-04-28T13:44:26.453Z,101697.27
2019-04-28T13:46:54.400Z,101697.04
2019-04-28T13:49:24.028Z,101699.11
2019-04-28T13:51:52.063Z,101700.28
2019-04-28T13:54:23.872Z,101702.05
2019-04-28T13:56:53.557Z,101701.52
2019-04-28T13:59:23.345Z,101704.59
2019-04-28T14:02:13.581Z,101701.17
2019-04-28T14:04:47.145Z,101699.56
2019-04-28T14:07:15.183Z,101695.84
2019-04-28T14:09:43.080Z,101689.97
2019-04-28T14:12:10.946Z,101696.84
2019-04-28T14:14:38.813Z,101696.55
2019-04-28T14:17:06.608Z,101697.10
2019-04-28T14:19:34.562Z,101695.29
2019-04-28T14:22:02.790Z,101698.39
2019-04-28T14:24:31.117Z,101700.55
2019-04-28T14:26:58.996Z,101698.84
2019-04-28T14:29:28.184Z,101699.99
2019-04-28T14:31:56.363Z,101699.27
2019-04-28T14:34:24.276Z,101699.20
2019-04-28T14:36:53.228Z,101698.70
2019-04-28T14:39:21.056Z,101702.98
2019-04-28T14:41:48.909Z,101702.13
2019-04-28T14:44:17.773Z,101702.08
2019-04-28T14:46:45.781Z,101696.75
2019-04-28T14:49:13.692Z,101604.91
2019-04-28T14:51:41.644Z,101705.31
2019-04-28T14:54:09.528Z,101710.05
2019-04-28T14:56:37.673Z,101704.33
2019-04-28T14:59:07.301Z,101709.34
2019-04-28T15:02:09.375Z,101671.77
2019-04-28T15:04:55.387Z,101705.33
2019-04-28T15:07:40.899Z,101716.81
2019-04-28T15:10:17.181Z,101716.14
2019-04-28T15:12:45.025Z,101711.27
2019-04-28T15:15:12.899Z,101713.91
2019-04-28T15:17:40.769Z,101704.56
2019-04-28T15:20:08.537Z,101712.50
2019-04-28T15:22:36.441Z,101712.56
2019-04-28T15:25:04.403Z,101706.70
2019-04-28T15:27:32.231Z,101714.98
2019-04-28T15:30:00.118Z,101715.33
2019-04-28T15:32:28.405Z,101719.33
2019-04-28T15:34:56.295Z,101723.47
2019-04-28T15:37:24.228Z,101720.12
2019-04-28T15:39:54.860Z,101724.59
2019-04-28T15:42:22.636Z,101717.69
2019-04-28T15:44:50.409Z,101720.21
2019-04-28T15:47:19.078Z,101724.42
2019-04-28T15:49:47.170Z,101721.13
2019-04-28T15:52:15.533Z,101725.06
2019-04-28T15:54:43.479Z,101726.51
2019-04-28T15:57:11.458Z,101731.83
2019-04-28T15:59:39.404Z,101732.59
2019-04-28T16:02:07.345Z,101642.34
2019-04-28T16:04:35.353Z,101737.07
2019-04-28T16:07:03.313Z,101738.54
2019-04-28T16:09:31.253Z,101709.84
2019-04-28T16:11:59.038Z,101742.86
2019-04-28T16:14:26.870Z,101737.27
2019-04-28T16:16:54.811Z,101742.06
2019-04-28T16:19:47.143Z,101739.44
2019-04-28T16:22:15.166Z,101743.84
2019-04-28T16:25:03.508Z,101738.97
2019-04-28T16:27:31.489Z,101646.87
2019-04-28T16:29:59.314Z,101744.95
2019-04-28T16:32:28.335Z,101743.03
2019-04-28T16:34:56.230Z,101746.02
2019-04-28T16:37:49.358Z,101752.06
2019-04-28T16:40:17.249Z,101750.06
2019-04-28T16:42:45.874Z,101749.80
2019-04-28T16:45:15.082Z,101746.20
2019-04-28T16:47:42.979Z,101664.58
2019-04-28T16:50:10.907Z,101751.59
2019-04-28T16:52:38.832Z,101751.62
2019-04-28T16:58:33.193Z,101751.16
2019-04-28T17:01:22.165Z,101754.45
2019-04-28T17:04:05.896Z,101754.67
2019-04-28T17:06:33.638Z,101756.64
2019-04-28T17:09:01.490Z,101757.17
2019-04-28T17:11:29.356Z,101759.91
2019-04-28T17:13:57.252Z,101766.58
2019-04-28T17:16:25.004Z,101668.78
2019-04-28T17:18:52.779Z,101765.66
2019-04-28T17:21:20.675Z,101709.86
2019-04-28T17:23:48.612Z,101756.83
2019-04-28T17:26:16.657Z,101780.28
2019-04-28T17:28:52.585Z,101781.91
2019-04-28T17:31:20.602Z,101783.08
2019-04-28T17:33:48.404Z,101787.78
2019-04-28T17:36:16.343Z,101790.33
2019-04-28T17:38:44.317Z,101791.28
2019-04-28T17:41:12.197Z,101798.05
2019-04-28T17:43:40.262Z,101796.12
2019-04-28T17:46:08.288Z,101801.24
2019-04-28T17:48:38.947Z,101792.45
2019-04-28T17:51:06.771Z,101804.19
2019-04-28T17:53:35.061Z,101801.65
2019-04-28T17:56:03.342Z,101804.08
2019-04-28T17:58:31.153Z,101802.11
2019-04-28T18:01:24.080Z,101804.97
2019-04-28T18:04:09.984Z,101808.75
2019-04-28T18:06:39.070Z,101808.16
2019-04-28T18:09:06.967Z,101806.23
2019-04-28T18:11:34.734Z,101816.16
2019-04-28T18:14:04.227Z,101727.45
2019-04-28T18:16:49.784Z,101811.41
2019-04-28T18:19:34.106Z,101814.70
2019-04-28T18:22:01.886Z,101819.30
2019-04-28T18:24:29.725Z,101822.02
2019-04-28T18:26:57.499Z,101823.89
2019-04-28T18:29:25.404Z,101830.83
2019-04-28T18:32:19.963Z,101831.39
2019-04-28T18:52:26.499Z,101630.20
2019-04-28T18:54:54.215Z,101855.65
2019-04-28T18:57:32.680Z,101858.36
2019-04-28T18:59:55.100Z,101864.50
2019-04-28T19:02:32.830Z,101866.23
2019-04-28T19:05:00.554Z,101869.33
2019-04-28T19:07:55.744Z,101868.48
2019-04-28T19:10:46.439Z,101882.09
2019-04-28T19:13:11.744Z,101881.65
2019-04-28T19:15:57.323Z,101883.94
2019-04-28T19:18:30.341Z,101877.08
2019-04-28T19:20:58.171Z,101885.92
2019-04-28T19:23:25.925Z,101888.39
2019-04-28T19:25:55.090Z,101888.56
2019-04-28T19:29:02.430Z,101893.40
2019-04-28T19:31:38.742Z,101881.03
2019-04-28T19:34:06.522Z,101890.84
2019-04-28T19:36:34.355Z,101894.83
2019-04-28T19:39:03.686Z,101895.21
2019-04-28T19:41:31.585Z,101895.58
2019-04-28T19:43:59.399Z,101889.80
2019-04-28T19:46:27.142Z,101895.30
2019-04-28T19:49:01.756Z,101896.41
2019-04-28T19:51:31.994Z,101897.36
2019-04-28T19:53:59.455Z,101869.28
2019-04-28T19:56:35.135Z,101897.55
2019-04-28T19:59:10.475Z,101903.60
2019-04-28T20:01:38.321Z,101898.98
2019-04-28T20:04:06.126Z,101904.43
2019-04-28T20:06:33.838Z,101911.11
2019-04-28T20:09:01.578Z,101905.61
2019-04-28T20:11:29.342Z,101906.50
2019-04-28T20:13:57.076Z,101859.98
2019-04-28T20:16:36.355Z,101893.97
2019-04-28T20:19:01.423Z,101922.88
2019-04-28T20:21:29.241Z,101922.82
2019-04-28T20:23:57.009Z,101932.14
2019-04-28T20:26:24.763Z,101932.31
2019-04-28T20:28:52.504Z,101934.16
2019-04-28T20:31:20.415Z,101934.52
2019-04-28T20:33:48.238Z,101934.66
2019-04-28T20:36:21.467Z,101937.48
2019-04-28T20:38:51.249Z,101938.02
2019-04-28T20:41:24.204Z,101938.50
2019-04-28T20:43:52.815Z,101944.91
2019-04-28T20:46:20.618Z,101944.89
2019-04-28T20:48:48.392Z,101946.68
2019-04-28T20:51:16.127Z,101947.12
2019-04-28T20:53:45.035Z,101930.70
2019-04-28T20:56:12.745Z,101949.59
2019-04-28T20:58:40.598Z,101956.14
2019-04-28T21:01:08.427Z,101951.17
2019-04-28T21:03:38.520Z,101865.66
2019-04-28T21:06:05.667Z,101963.36
2019-04-28T21:08:33.495Z,101966.73
2019-04-28T21:11:01.303Z,101916.36
2019-04-28T21:13:29.007Z,101973.98
2019-04-28T21:15:56.728Z,101977.25
2019-04-28T21:18:24.759Z,101872.71
2019-04-28T21:20:52.602Z,101975.41
2019-04-28T21:23:20.791Z,101981.75
2019-04-28T21:25:48.691Z,101990.38
2019-04-28T21:28:16.479Z,101988.05
2019-04-28T21:30:44.281Z,101979.13
2019-04-28T21:33:30.003Z,101984.12
2019-04-28T21:35:57.778Z,101984.91
2019-04-28T21:38:25.500Z,101990.10
2019-04-28T21:40:53.303Z,101992.46
2019-04-28T21:43:32.808Z,101995.25
2019-04-28T21:46:28.022Z,101984.36
2019-04-28T21:49:09.874Z,101987.05
2019-04-28T21:51:37.607Z,101989.15
2019-04-28T21:54:05.343Z,101990.05
2019-04-28T21:56:33.134Z,101993.58
2019-04-28T21:59:00.880Z,101989.08
2019-04-28T22:01:29.034Z,101997.51
2019-04-28T22:03:56.851Z,101996.73
2019-04-28T22:06:24.571Z,101995.03
2019-04-28T22:08:52.379Z,101997.89
2019-04-28T22:11:20.118Z,101992.66
2019-04-28T22:13:48.024Z,101999.81
2019-04-28T22:16:15.784Z,101998.39
2019-04-28T22:18:44.789Z,101975.33
2019-04-28T22:21:21.015Z,102003.09
2019-04-28T22:24:03.940Z,102003.41
2019-04-28T22:26:48.451Z,102003.41
2019-04-28T22:29:16.187Z,102007.41
2019-04-28T22:31:44.211Z,102003.59
2019-04-28T22:34:12.264Z,101999.45
2019-04-28T22:36:39.994Z,101998.41
2019-04-28T22:39:07.723Z,101999.51
2019-04-28T22:41:43.231Z,102006.23
2019-04-28T22:44:07.875Z,102003.95
2019-04-28T22:46:35.602Z,102005.09
2019-04-28T22:49:05.120Z,101911.86
2019-04-28T22:51:32.849Z,101996.74
2019-04-28T22:54:03.250Z,102000.00
2019-04-28T22:56:39.938Z,101994.45
2019-04-28T22:59:20.258Z,102003.75
2019-04-28T23:01:52.230Z,101996.33
2019-04-28T23:04:42.109Z,101991.81
2019-04-28T23:07:09.924Z,101997.62
2019-04-28T23:09:37.630Z,102002.84
2019-04-28T23:12:05.355Z,101991.55
2019-04-28T23:14:33.093Z,101998.93
2019-04-28T23:17:00.952Z,101993.77
2019-04-28T23:19:31.176Z,102000.77
2019-04-28T23:22:08.992Z,102000.25
2019-04-28T23:24:36.746Z,101992.03
2019-04-28T23:27:04.482Z,102007.64
2019-04-28T23:29:33.780Z,101999.46
2019-04-28T23:32:09.339Z,102005.29
2019-04-28T23:34:37.064Z,102011.36
2019-04-28T23:37:05.236Z,102010.28
2019-04-28T23:39:33.063Z,102012.21
2019-04-28T23:42:12.727Z,102019.05
2019-04-28T23:44:40.447Z,102016.23
2019-04-28T23:47:08.162Z,102027.56
2019-04-28T23:49:36.203Z,101972.94
2019-04-28T23:52:35.493Z,102036.67
2019-04-28T23:55:05.361Z,102030.34
2019-04-28T23:57:33.087Z,102024.91
